createdAt,value
2023-02-01T00:00:18.255Z,95725.00
2023-02-01T00:01:18.141Z,95729.00
2023-02-01T00:02:18.158Z,95731.00
2023-02-01T00:03:18.147Z,95731.00
2023-02-01T05:58:32.563Z,95585.00
2023-02-01T06:59:32.071Z,95627.00
2023-02-01T07:31:31.787Z,95672.00
2023-02-01T07:36:31.719Z,95670.00
2023-02-01T07:38:31.711Z,95670.00
2023-02-01T08:29:31.277Z,95680.00
2023-02-01T08:31:31.331Z,95680.00
2023-02-01T08:32:31.245Z,95680.00
2023-02-01T08:33:31.398Z,95676.00
2023-02-01T08:34:31.229Z,95678.00
2023-02-01T08:35:42.774Z,95682.00
2023-02-01T08:36:31.217Z,95684.00
2023-02-01T08:37:38.648Z,95684.00
2023-02-01T08:39:31.340Z,95687.00
2023-02-01T08:40:31.189Z,95689.00
2023-02-01T08:41:31.195Z,95693.00
2023-02-01T08:42:31.165Z,95693.00
2023-02-01T08:44:31.157Z,95691.00
2023-02-01T08:45:32.145Z,95691.00
2023-02-01T08:46:31.143Z,95689.00
2023-02-01T08:47:31.120Z,95691.00
2023-02-01T08:48:31.411Z,95695.00
2023-02-01T08:49:31.151Z,95693.00
2023-02-01T08:50:31.106Z,95687.00
2023-02-01T08:51:31.091Z,95691.00
2023-02-01T08:52:31.134Z,95693.00
2023-02-01T08:53:31.407Z,95697.00
2023-02-01T08:54:31.066Z,95695.00
2023-02-01T08:56:31.106Z,95680.00
2023-02-01T08:57:31.084Z,95682.00
2023-02-01T08:58:31.416Z,95685.00
2023-02-01T08:59:31.028Z,95689.00
2023-02-01T09:00:31.414Z,95684.00
2023-02-01T09:01:31.090Z,95678.00
2023-02-01T09:02:30.999Z,95672.00
2023-02-01T09:03:31.442Z,95670.00
2023-02-01T09:04:30.988Z,95662.00
2023-02-01T09:05:47.585Z,95662.00
2023-02-01T09:06:30.976Z,95660.00
2023-02-01T09:07:30.954Z,95662.00
2023-02-01T09:08:31.419Z,95658.00
2023-02-01T09:09:30.938Z,95658.00
2023-02-01T09:10:35.048Z,95660.00
2023-02-01T09:11:31.049Z,95662.00
2023-02-01T09:12:31.002Z,95660.00
2023-02-01T09:13:31.026Z,95660.00
2023-02-01T09:14:30.993Z,95662.00
2023-02-01T09:16:30.972Z,95680.00
2023-02-01T09:17:31.223Z,95680.00
2023-02-01T09:18:30.964Z,95684.00
2023-02-01T09:19:31.418Z,95687.00
2023-02-01T09:20:30.938Z,95687.00
2023-02-01T09:21:32.413Z,95691.00
2023-02-01T09:22:30.920Z,95685.00
2023-02-01T09:23:30.913Z,95682.00
2023-02-01T09:24:30.904Z,95684.00
2023-02-01T09:25:30.916Z,95684.00
2023-02-01T09:26:32.396Z,95684.00
2023-02-01T09:27:30.964Z,95685.00
2023-02-01T09:28:34.096Z,95685.00
2023-02-01T09:29:30.923Z,95687.00
2023-02-01T09:30:31.479Z,95689.00
2023-02-01T09:31:31.009Z,95685.00
2023-02-01T09:32:30.884Z,95684.00
2023-02-01T09:33:30.832Z,95684.00
2023-02-01T09:34:30.838Z,95684.00
2023-02-01T09:35:30.815Z,95682.00
2023-02-01T09:36:31.320Z,95676.00
2023-02-01T09:37:30.794Z,95674.00
2023-02-01T09:38:31.045Z,95674.00
2023-02-01T09:39:30.952Z,95678.00
2023-02-01T09:40:30.761Z,95682.00
2023-02-01T09:41:30.759Z,95682.00
2023-02-01T09:42:31.145Z,95685.00
2023-02-01T09:43:30.784Z,95685.00
2023-02-01T09:44:39.020Z,95685.00
2023-02-01T09:45:30.941Z,95684.00
2023-02-01T09:46:30.840Z,95685.00
2023-02-01T09:47:30.710Z,95680.00
2023-02-01T09:48:31.210Z,95678.00
2023-02-01T09:49:30.944Z,95680.00
2023-02-01T09:50:30.684Z,95680.00
2023-02-01T09:51:30.676Z,95680.00
2023-02-01T09:52:30.659Z,95682.00
2023-02-01T09:53:30.681Z,95678.00
2023-02-01T09:54:34.156Z,95674.00
2023-02-01T09:55:31.152Z,95662.00
2023-02-01T09:56:30.634Z,95660.00
2023-02-01T09:57:30.630Z,95656.00
2023-02-01T09:58:30.608Z,95660.00
2023-02-01T09:59:30.960Z,95656.00
2023-02-01T10:06:31.426Z,95656.00
2023-02-01T10:07:30.935Z,95654.00
2023-02-01T10:12:31.170Z,95627.00
2023-02-01T10:15:30.767Z,95613.00
2023-02-01T10:16:31.199Z,95609.00
2023-02-01T10:19:31.002Z,95595.00
2023-02-01T10:21:30.608Z,95599.00
2023-02-01T10:26:31.441Z,95611.00
2023-02-01T10:27:31.484Z,95611.00
2023-02-01T11:38:31.120Z,95503.00
